createdAt,value
2022-08-24T00:00:50.500Z,10.82
2022-08-24T00:03:19.853Z,9.95
2022-08-24T00:05:49.050Z,10.68
2022-08-24T00:08:19.167Z,10.40
2022-08-24T00:10:48.963Z,9.75
2022-08-24T00:13:18.820Z,9.93
2022-08-24T00:15:49.315Z,9.38
2022-08-24T00:18:18.631Z,11.20
2022-08-24T00:20:48.536Z,10.20
2022-08-24T00:23:18.141Z,9.60
2022-08-24T00:25:47.761Z,10.35
2022-08-24T00:28:16.952Z,9.77
2022-08-24T00:30:45.953Z,10.88
2022-08-24T00:33:16.716Z,10.45
2022-08-24T00:35:45.876Z,9.88
2022-08-24T00:38:14.929Z,10.43
2022-08-24T00:40:49.787Z,11.00
2022-08-24T00:43:21.821Z,10.57
2022-08-24T00:45:59.441Z,11.20
2022-08-24T00:48:34.894Z,12.10
2022-08-24T00:51:08.744Z,11.55
2022-08-24T00:53:46.706Z,11.32
2022-08-24T00:56:21.780Z,11.48
2022-08-24T00:58:57.464Z,11.32
2022-08-24T01:01:29.706Z,11.48
2022-08-24T01:04:00.601Z,11.55
2022-08-24T01:06:30.211Z,11.13
2022-08-24T01:08:59.534Z,11.35
2022-08-24T01:11:33.737Z,12.15
2022-08-24T01:14:05.397Z,11.77
2022-08-24T01:16:52.764Z,12.20
2022-08-24T01:19:34.739Z,12.07
2022-08-24T01:22:22.984Z,12.02
2022-08-24T01:24:53.766Z,12.10
2022-08-24T01:27:23.904Z,12.10
2022-08-24T01:30:00.001Z,12.85
2022-08-24T01:32:29.054Z,13.27
2022-08-24T01:34:59.443Z,11.88
2022-08-24T01:37:28.884Z,12.43
2022-08-24T01:40:01.592Z,11.68
2022-08-24T01:42:34.858Z,12.87
2022-08-24T01:45:05.759Z,12.38
2022-08-24T01:47:35.257Z,12.75
2022-08-24T01:50:05.712Z,10.75
2022-08-24T01:53:03.506Z,10.55
2022-08-24T01:55:26.625Z,11.95
2022-08-24T01:57:56.062Z,9.95
2022-08-24T02:00:25.470Z,11.25
2022-08-24T02:02:56.660Z,13.02
2022-08-24T02:05:26.647Z,12.35
2022-08-24T02:07:56.837Z,11.75
2022-08-24T02:10:29.309Z,12.90
2022-08-24T02:13:00.477Z,11.98
2022-08-24T02:15:32.206Z,12.00
2022-08-24T02:18:02.055Z,11.63
2022-08-24T02:20:31.877Z,12.18
2022-08-24T02:23:01.351Z,11.32
2022-08-24T02:25:32.233Z,12.27
2022-08-24T02:28:02.304Z,12.40
2022-08-24T02:30:32.523Z,12.27
2022-08-24T02:33:02.546Z,11.93
2022-08-24T02:35:32.278Z,11.45
2022-08-24T02:38:01.780Z,11.43
2022-08-24T02:40:34.297Z,11.70
2022-08-24T02:43:03.748Z,11.80
2022-08-24T02:45:33.771Z,12.48
2022-08-24T02:48:02.848Z,12.50
2022-08-24T02:50:32.157Z,11.02
2022-08-24T02:53:01.889Z,10.93
2022-08-24T02:55:32.998Z,11.30
2022-08-24T02:58:02.275Z,9.95
2022-08-24T03:00:31.601Z,10.07
2022-08-24T03:03:01.758Z,9.48
2022-08-24T03:05:31.261Z,10.13
2022-08-24T03:08:00.321Z,11.48
2022-08-24T03:15:44.110Z,10.50
2022-08-24T03:18:14.058Z,9.75
2022-08-24T03:20:44.626Z,10.20
2022-08-24T03:23:14.262Z,10.13
2022-08-24T03:25:44.596Z,10.32
2022-08-24T03:28:14.277Z,10.57
2022-08-24T03:30:48.491Z,11.35
2022-08-24T03:33:19.766Z,12.32
2022-08-24T03:35:49.160Z,12.65
2022-08-24T03:38:19.715Z,10.45
2022-08-24T03:40:49.145Z,10.15
2022-08-24T03:43:33.480Z,11.75
2022-08-24T03:46:07.548Z,10.68
2022-08-24T03:48:41.077Z,10.90
2022-08-24T03:51:14.721Z,10.40
2022-08-24T03:53:44.636Z,9.80
2022-08-24T03:56:13.971Z,9.85
2022-08-24T03:58:43.514Z,10.23
2022-08-24T04:01:15.661Z,12.02
2022-08-24T04:03:46.949Z,10.38
2022-08-24T04:06:19.342Z,10.57
2022-08-24T04:08:49.461Z,12.05
2022-08-24T04:11:23.094Z,12.00
2022-08-24T04:13:54.322Z,12.43
2022-08-24T04:16:27.084Z,12.55
2022-08-24T04:19:06.162Z,13.45
2022-08-24T04:21:37.234Z,13.18
2022-08-24T04:24:10.519Z,13.40
2022-08-24T04:26:45.772Z,12.88
2022-08-24T04:29:20.609Z,12.63
2022-08-24T04:31:56.452Z,12.30
2022-08-24T04:34:25.981Z,12.55
2022-08-24T04:36:55.425Z,13.18
2022-08-24T04:39:24.411Z,13.18
2022-08-24T04:41:58.954Z,12.90
2022-08-24T04:44:36.150Z,11.90
2022-08-24T04:47:08.859Z,13.07
2022-08-24T04:49:40.053Z,13.10
2022-08-24T04:52:09.989Z,13.00
2022-08-24T04:54:39.118Z,12.30
2022-08-24T04:57:17.995Z,13.03
2022-08-24T04:59:48.669Z,12.20
2022-08-24T05:02:20.978Z,11.95
2022-08-24T05:04:52.275Z,12.57
2022-08-24T05:07:21.706Z,12.40
2022-08-24T05:09:52.434Z,13.48
2022-08-24T05:12:22.956Z,13.35
2022-08-24T05:15:00.670Z,12.05
2022-08-24T05:17:33.545Z,11.70
2022-08-24T05:20:06.770Z,10.98
2022-08-24T05:22:36.325Z,12.02
2022-08-24T05:25:07.432Z,11.80
2022-08-24T05:27:37.738Z,12.20
2022-08-24T05:30:08.301Z,11.77
2022-08-24T05:32:39.508Z,12.10
2022-08-24T05:35:09.837Z,11.60
2022-08-24T05:37:40.336Z,11.40
2022-08-24T05:40:21.022Z,11.85
2022-08-24T05:42:54.816Z,11.65
2022-08-24T05:45:24.971Z,10.80
2022-08-24T05:47:55.695Z,11.18
2022-08-24T05:50:55.151Z,12.07
2022-08-24T05:53:25.837Z,10.57
2022-08-24T05:55:55.332Z,10.90
2022-08-24T05:58:30.777Z,10.70
2022-08-24T06:01:08.645Z,10.38
2022-08-24T06:03:40.847Z,10.10
2022-08-24T06:06:13.650Z,10.05
2022-08-24T06:08:45.838Z,9.60
2022-08-24T06:11:30.183Z,8.15
2022-08-24T06:16:36.649Z,8.68
2022-08-24T06:19:09.595Z,8.57
2022-08-24T06:21:39.091Z,8.73
2022-08-24T06:24:09.183Z,7.55
2022-08-24T06:26:56.458Z,8.05
2022-08-24T06:29:25.644Z,8.32
2022-08-24T06:31:59.985Z,8.55
2022-08-24T06:34:30.736Z,8.00
2022-08-24T06:36:59.924Z,7.82
2022-08-24T06:39:29.287Z,8.18
2022-08-24T06:41:59.496Z,7.60
2022-08-24T06:44:33.516Z,8.18
2022-08-24T06:47:15.831Z,8.65
2022-08-24T06:49:46.866Z,7.97
2022-08-24T06:52:16.718Z,7.55
2022-08-24T06:54:46.183Z,7.50
2022-08-24T06:57:15.539Z,7.45
2022-08-24T06:59:45.897Z,8.27
2022-08-24T07:02:16.531Z,7.85
2022-08-24T07:04:48.318Z,7.82
2022-08-24T07:07:36.596Z,8.15
2022-08-24T07:10:08.708Z,7.80
2022-08-24T07:12:40.220Z,6.95
2022-08-24T07:15:12.537Z,7.28
2022-08-24T07:17:52.045Z,7.95
2022-08-24T07:20:25.052Z,6.70
2022-08-24T07:23:13.110Z,7.63
2022-08-24T07:25:48.913Z,7.18
2022-08-24T07:28:31.631Z,7.78
2022-08-24T07:31:03.722Z,7.38
2022-08-24T07:33:39.048Z,7.25
2022-08-24T07:36:10.167Z,8.38
2022-08-24T07:38:42.258Z,7.70
2022-08-24T07:41:38.193Z,8.25
2022-08-24T07:44:01.351Z,8.65
2022-08-24T07:46:30.882Z,8.25
2022-08-24T07:49:11.405Z,8.20
2022-08-24T07:51:53.323Z,8.52
2022-08-24T07:54:23.028Z,7.13
2022-08-24T07:56:53.508Z,7.25
2022-08-24T07:59:22.946Z,6.43
2022-08-24T08:01:53.278Z,7.25
2022-08-24T08:04:25.287Z,6.82
2022-08-24T08:09:33.136Z,6.63
2022-08-24T08:12:03.061Z,6.32
2022-08-24T08:14:33.209Z,5.88
2022-08-24T08:17:02.982Z,5.47
2022-08-24T08:19:33.166Z,5.70
2022-08-24T08:22:21.927Z,6.30
2022-08-24T08:25:19.286Z,4.97
2022-08-24T08:27:48.793Z,5.57
2022-08-24T08:30:18.683Z,5.00
2022-08-24T08:32:47.770Z,5.35
2022-08-24T08:35:17.150Z,5.03
2022-08-24T08:37:48.295Z,5.30
2022-08-24T08:40:31.060Z,5.53
2022-08-24T08:43:07.576Z,5.13
2022-08-24T08:45:58.766Z,5.32
2022-08-24T08:49:24.751Z,5.43
2022-08-24T08:52:24.634Z,5.22
2022-08-24T08:55:11.938Z,4.97
2022-08-24T08:57:56.641Z,4.80
2022-08-24T09:00:34.882Z,5.35
2022-08-24T09:03:25.587Z,4.90
2022-08-24T09:06:38.665Z,4.90
2022-08-24T09:09:36.074Z,5.25
2022-08-24T09:12:23.292Z,4.57
2022-08-24T09:15:15.958Z,4.68
2022-08-24T09:18:04.881Z,4.00
2022-08-24T09:21:04.699Z,4.63
2022-08-24T09:23:45.682Z,4.75
2022-08-24T09:26:27.267Z,4.80
2022-08-24T09:29:11.385Z,3.97
2022-08-24T09:31:57.402Z,4.38
2022-08-24T09:34:37.365Z,4.30
2022-08-24T09:37:30.202Z,3.90
2022-08-24T09:40:12.823Z,3.90
2022-08-24T09:43:17.506Z,4.30
2022-08-24T09:46:25.369Z,4.68
2022-08-24T09:49:23.996Z,4.38
2022-08-24T09:52:36.786Z,3.83
2022-08-24T09:55:33.472Z,3.80
2022-08-24T09:58:14.355Z,4.05
2022-08-24T10:00:48.956Z,4.40
2022-08-24T10:03:48.570Z,4.35
2022-08-24T10:06:31.471Z,4.20
2022-08-24T10:09:15.540Z,3.95
2022-08-24T10:12:00.292Z,3.97
2022-08-24T10:14:45.881Z,4.13
2022-08-24T10:17:23.314Z,3.95
2022-08-24T10:20:06.902Z,4.20
2022-08-24T10:23:02.606Z,3.58
2022-08-24T10:25:39.494Z,3.83
2022-08-24T10:28:45.874Z,3.75
2022-08-24T10:31:20.424Z,3.92
2022-08-24T10:34:08.241Z,3.55
2022-08-24T10:37:02.460Z,4.07
2022-08-24T10:42:58.770Z,3.83
2022-08-24T10:46:02.501Z,4.03
2022-08-24T10:48:54.614Z,3.35
2022-08-24T10:51:37.915Z,4.32
2022-08-24T10:54:12.329Z,4.20
2022-08-24T10:56:44.574Z,4.10
2022-08-24T10:59:23.950Z,3.97
2022-08-24T11:02:08.420Z,3.75
2022-08-24T11:04:43.535Z,3.83
2022-08-24T11:07:20.535Z,4.13
2022-08-24T11:09:56.398Z,4.05
2022-08-24T11:12:33.676Z,4.13
2022-08-24T11:15:06.049Z,4.13
2022-08-24T11:17:37.836Z,4.70
2022-08-24T11:20:27.800Z,4.15
2022-08-24T11:23:05.250Z,4.68
2022-08-24T11:25:38.703Z,4.70
2022-08-24T11:28:20.698Z,4.85
2022-08-24T11:30:50.323Z,5.00
2022-08-24T11:33:32.195Z,5.18
2022-08-24T11:36:02.833Z,5.00
2022-08-24T11:38:35.084Z,4.82
2022-08-24T11:41:14.455Z,5.45
2022-08-24T11:43:59.547Z,5.93
2022-08-24T11:46:38.388Z,5.50
2022-08-24T11:49:15.526Z,5.20
2022-08-24T11:51:50.298Z,4.78
2022-08-24T11:54:30.066Z,4.57
2022-08-24T11:57:12.776Z,4.97
2022-08-24T11:59:51.861Z,4.25
2022-08-24T12:02:29.963Z,4.60
2022-08-24T12:05:09.899Z,4.20
2022-08-24T12:07:52.380Z,3.20
2022-08-24T12:10:32.819Z,3.67
2022-08-24T12:13:10.386Z,3.33
2022-08-24T12:15:51.808Z,3.00
2022-08-24T12:18:31.080Z,3.33
2022-08-24T12:21:01.398Z,2.97
2022-08-24T12:23:38.704Z,2.97
2022-08-24T12:26:13.388Z,2.78
2022-08-24T12:28:53.657Z,2.90
2022-08-24T12:31:37.751Z,2.55
2022-08-24T12:34:14.612Z,3.00
2022-08-24T12:36:54.833Z,3.10
2022-08-24T12:39:27.559Z,2.60
2022-08-24T12:42:17.214Z,2.60
2022-08-24T12:44:56.766Z,2.63
2022-08-24T12:47:31.463Z,2.85
2022-08-24T12:50:07.198Z,2.40
2022-08-24T12:53:08.981Z,2.53
2022-08-24T12:56:08.306Z,2.63
2022-08-24T12:58:58.440Z,2.90
2022-08-24T13:01:33.723Z,2.95
2022-08-24T13:04:20.111Z,2.50
2022-08-24T13:06:57.744Z,2.30
2022-08-24T13:09:33.227Z,2.40
2022-08-24T13:12:41.771Z,3.28
2022-08-24T13:15:42.756Z,2.33
2022-08-24T13:18:42.867Z,2.45
2022-08-24T13:21:33.931Z,2.22
2022-08-24T13:24:48.237Z,2.65
2022-08-24T13:28:03.048Z,2.40
2022-08-24T13:31:04.478Z,2.42
2022-08-24T13:33:38.867Z,2.40
2022-08-24T13:36:47.282Z,2.30
2022-08-24T13:39:49.088Z,2.45
2022-08-24T13:42:39.995Z,2.13
2022-08-24T13:45:26.203Z,2.22
2022-08-24T13:48:05.193Z,2.30
2022-08-24T13:50:43.716Z,2.08
2022-08-24T13:53:44.514Z,2.15
2022-08-24T13:56:32.686Z,2.03
2022-08-24T13:59:12.436Z,1.95
2022-08-24T14:02:01.096Z,2.38
2022-08-24T14:04:55.127Z,2.13
2022-08-24T14:07:29.915Z,2.10
2022-08-24T14:10:11.939Z,2.20
2022-08-24T14:12:52.081Z,2.50
2022-08-24T14:15:35.063Z,1.95
2022-08-24T14:18:11.644Z,2.08
2022-08-24T14:21:05.963Z,2.05
2022-08-24T14:23:57.640Z,2.40
2022-08-24T14:27:07.233Z,2.22
2022-08-24T14:29:44.321Z,2.33
2022-08-24T14:32:40.797Z,2.13
2022-08-24T14:35:36.337Z,2.47
2022-08-24T14:38:33.322Z,2.22
2022-08-24T14:41:21.075Z,2.35
2022-08-24T14:44:15.105Z,2.22
2022-08-24T14:46:53.022Z,1.95
2022-08-24T14:49:30.482Z,2.53
2022-08-24T14:52:24.888Z,1.98
2022-08-24T14:55:07.103Z,2.25
2022-08-24T15:00:16.105Z,2.63
2022-08-24T15:03:06.596Z,2.45
2022-08-24T15:05:44.003Z,2.60
2022-08-24T15:08:28.914Z,2.35
2022-08-24T15:11:02.664Z,2.88
2022-08-24T15:13:38.610Z,3.03
2022-08-24T15:16:13.148Z,3.33
2022-08-24T15:18:49.352Z,2.83
2022-08-24T15:21:41.451Z,2.50
2022-08-24T15:24:20.732Z,3.30
2022-08-24T15:27:15.611Z,3.45
2022-08-24T15:29:53.223Z,3.10
2022-08-24T15:32:28.243Z,3.65
2022-08-24T15:34:59.513Z,3.53
2022-08-24T15:37:35.113Z,3.53
2022-08-24T15:40:10.946Z,3.13
2022-08-24T15:42:42.991Z,3.30
2022-08-24T15:45:14.798Z,3.70
2022-08-24T15:47:51.889Z,3.45
2022-08-24T15:50:26.405Z,3.65
2022-08-24T15:53:01.109Z,4.43
2022-08-24T15:55:42.238Z,4.63
2022-08-24T15:58:30.519Z,4.88
2022-08-24T16:01:36.263Z,4.35
2022-08-24T16:04:11.775Z,8.20
2022-08-24T16:06:45.342Z,5.07
2022-08-24T16:09:35.643Z,5.10
2022-08-24T16:12:12.829Z,4.80
2022-08-24T16:14:47.566Z,3.95
2022-08-24T16:17:28.180Z,3.78
2022-08-24T16:20:00.678Z,3.47
2022-08-24T16:22:36.178Z,4.05
2022-08-24T16:25:25.521Z,3.88
2022-08-24T16:28:07.823Z,3.45
2022-08-24T16:30:48.349Z,3.58
2022-08-24T16:33:44.193Z,4.18
2022-08-24T16:36:17.821Z,3.70
2022-08-24T16:38:50.842Z,3.50
2022-08-24T16:41:23.797Z,3.20
2022-08-24T16:43:53.645Z,3.58
2022-08-24T16:46:24.944Z,4.30
2022-08-24T16:48:55.182Z,3.65
2022-08-24T16:51:25.486Z,3.67
2022-08-24T16:53:55.127Z,3.55
2022-08-24T16:56:26.224Z,3.60
2022-08-24T16:58:56.076Z,3.60
2022-08-24T17:01:25.995Z,3.42
2022-08-24T17:03:55.612Z,3.40
2022-08-24T17:06:25.227Z,3.80
2022-08-24T17:08:55.099Z,3.88
2022-08-24T17:11:27.199Z,4.03
2022-08-24T17:13:56.922Z,4.05
2022-08-24T17:16:26.403Z,4.00
2022-08-24T17:18:55.915Z,9.02
2022-08-24T17:21:25.239Z,8.48
2022-08-24T17:23:54.429Z,4.65
2022-08-24T17:26:26.960Z,3.72
2022-08-24T17:28:56.972Z,4.40
2022-08-24T17:31:26.376Z,3.92
2022-08-24T17:33:55.860Z,3.75
2022-08-24T17:36:26.157Z,3.58
2022-08-24T17:39:03.165Z,3.85
2022-08-24T17:41:34.622Z,4.00
2022-08-24T17:44:04.678Z,4.82
2022-08-24T17:46:37.253Z,4.18
2022-08-24T17:49:07.738Z,4.55
2022-08-24T17:51:37.330Z,3.50
2022-08-24T17:54:08.156Z,4.05
2022-08-24T17:56:41.009Z,3.90
2022-08-24T17:59:26.454Z,3.95
2022-08-24T18:02:00.500Z,4.00
2022-08-24T18:04:34.051Z,4.15
2022-08-24T18:07:05.992Z,4.63
2022-08-24T18:09:42.109Z,4.80
2022-08-24T18:12:13.065Z,5.25
2022-08-24T18:14:43.372Z,6.00
2022-08-24T18:17:21.110Z,4.72
2022-08-24T18:19:54.175Z,5.75
2022-08-24T18:22:23.468Z,6.10
2022-08-24T18:24:52.809Z,6.18
2022-08-24T18:27:28.898Z,5.00
2022-08-24T18:30:01.325Z,5.47
2022-08-24T18:32:37.730Z,4.55
2022-08-24T18:35:09.871Z,4.55
2022-08-24T18:37:39.165Z,4.97
2022-08-24T18:40:21.390Z,5.22
2022-08-24T18:42:52.514Z,5.50
2022-08-24T18:45:22.987Z,5.25
2022-08-24T18:47:53.302Z,4.93
2022-08-24T18:50:23.567Z,4.85
2022-08-24T18:52:52.859Z,5.10
2022-08-24T18:55:23.110Z,5.45
2022-08-24T18:57:54.336Z,4.65
2022-08-24T19:00:24.080Z,4.40
2022-08-24T19:02:57.959Z,4.93
2022-08-24T19:05:27.983Z,4.88
2022-08-24T19:07:57.424Z,4.75
2022-08-24T19:10:28.821Z,4.53
2022-08-24T19:13:03.283Z,4.22
2022-08-24T19:15:40.342Z,5.30
2022-08-24T19:18:12.677Z,4.40
2022-08-24T19:20:47.953Z,4.40
2022-08-24T19:23:22.430Z,4.68
2022-08-24T19:25:55.879Z,4.63
2022-08-24T19:28:27.584Z,5.65
2022-08-24T19:31:00.511Z,4.63
2022-08-24T19:33:37.148Z,6.70
2022-08-24T19:36:07.240Z,5.13
2022-08-24T19:38:37.010Z,5.28
2022-08-24T19:41:12.676Z,4.85
2022-08-24T19:43:58.512Z,5.22
2022-08-24T19:46:28.159Z,4.88
2022-08-24T19:48:57.583Z,4.80
2022-08-24T19:51:27.081Z,5.13
2022-08-24T19:53:58.697Z,4.78
2022-08-24T19:56:32.549Z,5.43
2022-08-24T19:59:07.782Z,4.35
2022-08-24T20:01:38.383Z,4.70
2022-08-24T20:04:08.492Z,4.78
2022-08-24T20:06:38.738Z,4.43
2022-08-24T20:09:08.420Z,4.72
2022-08-24T20:11:39.435Z,4.32
2022-08-24T20:14:10.287Z,4.25
2022-08-24T20:16:43.578Z,4.78
2022-08-24T20:19:15.793Z,6.22
2022-08-24T20:21:45.145Z,5.13
2022-08-24T20:24:15.316Z,5.55
2022-08-24T20:26:46.841Z,5.35
2022-08-24T20:29:18.238Z,5.38
2022-08-24T20:31:50.617Z,4.82
2022-08-24T20:34:21.505Z,5.22
2022-08-24T20:36:52.017Z,4.90
2022-08-24T20:39:24.970Z,5.45
2022-08-24T20:41:54.487Z,5.38
2022-08-24T20:44:25.067Z,5.32
2022-08-24T20:46:55.269Z,5.97
2022-08-24T20:49:27.868Z,6.47
2022-08-24T20:52:00.622Z,5.82
2022-08-24T20:54:29.908Z,5.40
2022-08-24T20:56:59.113Z,4.93
2022-08-24T20:59:29.852Z,5.53
2022-08-24T21:02:00.259Z,5.85
2022-08-24T21:04:30.602Z,5.88
2022-08-24T21:06:59.854Z,5.95
2022-08-24T21:09:29.413Z,5.45
2022-08-24T21:11:58.578Z,6.93
2022-08-24T21:14:29.287Z,6.43
2022-08-24T21:17:01.013Z,6.18
2022-08-24T21:19:30.730Z,7.00
2022-08-24T21:22:00.030Z,6.38
2022-08-24T21:24:29.441Z,6.53
2022-08-24T21:26:59.939Z,7.88
2022-08-24T21:29:33.120Z,7.97
2022-08-24T21:32:19.583Z,7.72
2022-08-24T21:34:48.976Z,7.80
2022-08-24T21:37:20.275Z,8.65
2022-08-24T21:39:50.094Z,7.38
2022-08-24T21:42:20.209Z,7.30
2022-08-24T21:44:50.678Z,7.35
2022-08-24T21:47:20.279Z,7.55
2022-08-24T21:49:49.480Z,7.10
2022-08-24T21:52:18.584Z,7.40
2022-08-24T21:54:47.968Z,7.43
2022-08-24T21:57:16.952Z,7.05
2022-08-24T21:59:46.273Z,7.38
2022-08-24T22:02:20.568Z,7.00
2022-08-24T22:04:56.044Z,6.97
2022-08-24T22:07:26.141Z,7.20
2022-08-24T22:09:55.267Z,7.57
2022-08-24T22:12:24.283Z,6.95
2022-08-24T22:14:53.493Z,7.30
2022-08-24T22:17:23.954Z,7.88
2022-08-24T22:19:52.922Z,8.85
2022-08-24T22:22:22.461Z,8.52
2022-08-24T22:24:51.641Z,8.70
2022-08-24T22:27:21.146Z,8.63
2022-08-24T22:29:54.574Z,7.55
2022-08-24T22:32:25.767Z,7.72
2022-08-24T22:34:55.489Z,7.65
2022-08-24T22:37:24.556Z,7.93
2022-08-24T22:39:53.551Z,8.18
2022-08-24T22:42:22.909Z,7.45
2022-08-24T22:44:52.134Z,6.88
2022-08-24T22:47:21.241Z,7.30
2022-08-24T22:49:54.345Z,6.97
2022-08-24T22:52:23.644Z,6.53
2022-08-24T22:54:52.881Z,7.10
2022-08-24T22:57:21.885Z,7.72
2022-08-24T22:59:51.142Z,7.13
2022-08-24T23:02:20.708Z,7.53
2022-08-24T23:04:52.537Z,7.45
2022-08-24T23:07:22.162Z,6.85
2022-08-24T23:09:51.517Z,8.05
2022-08-24T23:12:22.961Z,7.82
2022-08-24T23:14:53.552Z,8.02
2022-08-24T23:17:23.637Z,7.47
2022-08-24T23:20:05.810Z,6.55
2022-08-24T23:22:38.705Z,7.70
2022-08-24T23:25:09.756Z,7.25
2022-08-24T23:27:39.263Z,7.32
2022-08-24T23:30:11.518Z,7.35
2022-08-24T23:32:41.269Z,7.75
2022-08-24T23:35:12.222Z,7.90
2022-08-24T23:37:42.282Z,6.55
2022-08-24T23:40:12.606Z,7.50
2022-08-24T23:42:41.808Z,7.68
2022-08-24T23:45:12.407Z,6.90
2022-08-24T23:47:42.683Z,7.00
2022-08-24T23:50:13.550Z,7.15
2022-08-24T23:52:42.894Z,7.50
2022-08-24T23:55:21.323Z,7.03
2022-08-24T23:57:52.712Z,7.72
